Wetterdaten: Woche 04.01.16 - 10.01.16 (KW1)
Datum Zeit Temp. Aussen Temp. o. S. +5cm Feuchte Auss BlattFeu 1 Luftdruck Regen Sonnenschein Regendauer Solar Windben Empfang
04.01.2016 00:00 4,8 C 4,4 C 3,3 C 95 % 15 lf 990,0 hPa 1,4 l/m 0,00 h 1,00 h 0 W/m 33,2 km/h (5 Bft) 96,67 %
04.01.2016 01:00 4,4 C 4,2 C 3,0 C 96 % 15 lf 989,3 hPa 1,0 l/m 0,00 h 1,00 h 0 W/m 28,2 km/h (4 Bft) 94,45 %
04.01.2016 02:00 4,1 C 3,9 C 2,8 C 96 % 15 lf 988,9 hPa 1,2 l/m 0,00 h 1,00 h 0 W/m 26,1 km/h (4 Bft) 97,08 %
04.01.2016 03:00 3,8 C 3,7 C 2,5 C 96 % 15 lf 988,6 hPa 1,4 l/m 0,00 h 1,00 h 0 W/m 26,4 km/h (4 Bft) 97,15 %
04.01.2016 04:00 3,6 C 3,3 C 2,2 C 96 % 15 lf 988,1 hPa 1,0 l/m 0,00 h 1,00 h 0 W/m 22,5 km/h (4 Bft) 95,09 %
04.01.2016 05:00 3,4 C 3,3 C 2,2 C 97 % 15 lf 987,6 hPa 0,8 l/m 0,00 h 1,00 h 0 W/m 22,1 km/h (4 Bft) 94,37 %
04.01.2016 06:00 3,3 C 3,3 C 2,2 C 97 % 15 lf 987,5 hPa 0,0 l/m 0,00 h 0,43 h 0 W/m 19,0 km/h (3 Bft) 97,94 %
04.01.2016 07:00 3,3 C 3,3 C 2,2 C 97 % 15 lf 987,6 hPa 0,0 l/m 0,00 h 0,07 h 0 W/m 15,3 km/h (3 Bft) 94,37 %
04.01.2016 08:00 3,5 C 3,6 C 2,5 C 97 % 15 lf 987,8 hPa 0,0 l/m 0,00 h 0,23 h 0 W/m 10,3 km/h (2 Bft) 97,15 %
04.01.2016 09:00 3,8 C 4,0 C 2,9 C 98 % 15 lf 988,1 hPa 0,2 l/m 0,00 h 0,55 h 20 W/m 10,5 km/h (2 Bft) 95,11 %
04.01.2016 10:00 4,4 C 5,0 C 3,8 C 98 % 15 lf 988,3 hPa 0,0 l/m 0,00 h 0,07 h 63 W/m 7,2 km/h (2 Bft) 94,56 %
04.01.2016 11:00 5,8 C 6,7 C 5,3 C 98 % 14 lf 988,5 hPa 0,2 l/m 0,00 h 0,23 h 69 W/m 11,3 km/h (2 Bft) 97,79 %
04.01.2016 12:00 7,0 C 7,8 C 6,1 C 99 % 14 lf 988,5 hPa 0,0 l/m 0,03 h 0,17 h 100 W/m 12,8 km/h (3 Bft) 95,94 %
04.01.2016 13:00 7,3 C 7,8 C 6,1 C 99 % 1 lf 988,6 hPa 0,0 l/m 0,00 h 0,00 h 72 W/m 15,5 km/h (3 Bft) 94,24 %
04.01.2016 14:00 7,3 C 7,2 C 5,8 C 98 % 11 lf 988,7 hPa 0,0 l/m 0,00 h 0,20 h 41 W/m 12,6 km/h (3 Bft) 96,65 %
04.01.2016 15:00 7,0 C 6,7 C 5,6 C 97 % 15 lf 988,8 hPa 0,2 l/m 0,00 h 0,40 h 18 W/m 8,5 km/h (2 Bft) 96,97 %
04.01.2016 16:00 6,8 C 6,7 C 5,6 C 97 % 15 lf 989,1 hPa 0,2 l/m 0,00 h 0,33 h 10 W/m 8,4 km/h (2 Bft) 96,13 %
04.01.2016 17:00 6,7 C 6,7 C 5,6 C 97 % 15 lf 989,4 hPa 0,0 l/m 0,00 h 0,00 h 0 W/m 7,3 km/h (2 Bft) 95,78 %
04.01.2016 18:00 6,8 C 6,7 C 5,6 C 98 % 15 lf 989,5 hPa 0,0 l/m 0,00 h 0,10 h 0 W/m 7,6 km/h (2 Bft) 95,56 %
04.01.2016 19:00 6,7 C 6,7 C 5,1 C 97 % 15 lf 989,6 hPa 0,0 l/m 0,00 h 0,10 h 0 W/m 9,6 km/h (2 Bft) 96,80 %
04.01.2016 20:00 6,6 C 6,7 C 5,0 C 97 % 15 lf 989,9 hPa 0,0 l/m 0,00 h 0,00 h 0 W/m 8,1 km/h (2 Bft) 96,27 %
04.01.2016 21:00 6,3 C 5,8 C 4,2 C 97 % 15 lf 990,0 hPa 0,0 l/m 0,00 h 0,00 h 0 W/m 8,3 km/h (2 Bft) 95,31 %
04.01.2016 22:00 5,7 C 5,6 C 3,8 C 96 % 15 lf 990,1 hPa 0,0 l/m 0,00 h 0,03 h 0 W/m 7,9 km/h (2 Bft) 95,77 %
04.01.2016 23:00 5,4 C 5,1 C 3,3 C 96 % 15 lf 990,1 hPa 0,0 l/m 0,00 h 0,00 h 0 W/m 4,7 km/h (1 Bft) 94,30 %
05.01.2016 00:00 5,5 C 5,6 C 3,9 C 97 % 13 lf 990,2 hPa 0,0 l/m 0,00 h 0,00 h 0 W/m 5,7 km/h (1 Bft) 92,91 %
05.01.2016 01:00 5,8 C 6,1 C 4,4 C 97 % 4 lf 990,0 hPa 0,0 l/m 0,00 h 0,00 h 0 W/m 6,9 km/h (2 Bft) 94,61 %
05.01.2016 02:00 5,8 C 6,5 C 4,4 C 97 % 0 lf 990,0 hPa 0,0 l/m 0,00 h 0,00 h 0 W/m 9,7 km/h (2 Bft) 94,94 %
05.01.2016 03:00 6,0 C 6,2 C 4,4 C 95 % 0 lf 990,0 hPa 0,0 l/m 0,00 h 0,00 h 0 W/m 9,0 km/h (2 Bft) 98,09 %
05.01.2016 04:00 6,1 C 6,5 C 4,4 C 94 % 0 lf 989,9 hPa 0,0 l/m 0,00 h 0,00 h 0 W/m 10,1 km/h (2 Bft) 95,73 %
05.01.2016 05:00 6,3 C 6,7 C 4,6 C 93 % 0 lf 990,0 hPa 0,0 l/m 0,00 h 0,00 h 0 W/m 13,2 km/h (3 Bft) 96,23 %
05.01.2016 06:00 6,3 C 6,1 C 4,6 C 91 % 0 lf 990,2 hPa 0,0 l/m 0,00 h 0,00 h 0 W/m 7,4 km/h (2 Bft) 95,43 %
05.01.2016 07:00 5,9 C 6,1 C 4,4 C 92 % 0 lf 990,6 hPa 0,0 l/m 0,00 h 0,00 h 0 W/m 8,3 km/h (2 Bft) 95,95 %
05.01.2016 08:00 5,8 C 6,1 C 4,4 C 92 % 0 lf 991,0 hPa 0,0 l/m 0,00 h 0,00 h 7 W/m 8,9 km/h (2 Bft) 95,93 %
05.01.2016 09:00 5,9 C 6,6 C 5,0 C 91 % 0 lf 991,5 hPa 0,0 l/m 0,00 h 0,00 h 18 W/m 12,8 km/h (3 Bft) 97,29 %
05.01.2016 10:00 6,3 C 7,0 C 5,5 C 90 % 0 lf 991,8 hPa 0,0 l/m 0,03 h 0,00 h 63 W/m 14,3 km/h (3 Bft) 94,09 %
05.01.2016 11:00 7,4 C 10,8 C 7,1 C 89 % 0 lf 992,0 hPa 0,0 l/m 0,87 h 0,00 h 207 W/m 15,7 km/h (3 Bft) 96,93 %
05.01.2016 12:00 8,9 C 12,0 C 7,5 C 84 % 0 lf 991,7 hPa 0,0 l/m 0,70 h 0,00 h 194 W/m 13,9 km/h (3 Bft) 96,78 %
05.01.2016 13:00 8,6 C 9,1 C 7,5 C 83 % 0 lf 991,8 hPa 0,0 l/m 0,00 h 0,00 h 80 W/m 13,0 km/h (3 Bft) 93,24 %
05.01.2016 14:00 8,6 C 8,9 C 7,4 C 83 % 0 lf 991,9 hPa 0,0 l/m 0,00 h 0,00 h 41 W/m 12,0 km/h (2 Bft) 96,72 %
05.01.2016 15:00 8,4 C 8,5 C 7,0 C 83 % 0 lf 992,1 hPa 0,0 l/m 0,00 h 0,00 h 18 W/m 7,8 km/h (2 Bft) 98,51 %
05.01.2016 16:00 8,1 C 8,0 C 6,5 C 85 % 0 lf 992,4 hPa 0,0 l/m 0,00 h 0,00 h 6 W/m 9,0 km/h (2 Bft) 94,32 %
05.01.2016 17:00 7,7 C 7,4 C 5,9 C 87 % 0 lf 992,8 hPa 0,0 l/m 0,00 h 0,10 h 5 W/m 9,8 km/h (2 Bft) 95,89 %
05.01.2016 18:00 7,3 C 7,1 C 5,5 C 90 % 0 lf 993,2 hPa 0,0 l/m 0,00 h 0,17 h 0 W/m 12,0 km/h (2 Bft) 96,81 %
05.01.2016 19:00 7,0 C 6,8 C 5,0 C 91 % 0 lf 993,4 hPa 0,2 l/m 0,00 h 0,00 h 0 W/m 9,8 km/h (2 Bft) 95,66 %
05.01.2016 20:00 6,8 C 6,6 C 5,0 C 92 % 2 lf 993,9 hPa 0,0 l/m 0,00 h 0,17 h 0 W/m 7,3 km/h (2 Bft) 96,29 %
05.01.2016 21:00 6,7 C 6,6 C 5,0 C 93 % 1 lf 994,2 hPa 0,0 l/m 0,00 h 0,00 h 0 W/m 8,2 km/h (2 Bft) 95,87 %
05.01.2016 22:00 6,4 C 6,4 C 4,9 C 94 % 2 lf 994,5 hPa 0,2 l/m 0,00 h 0,57 h 0 W/m 8,8 km/h (2 Bft) 95,59 %
05.01.2016 23:00 6,2 C 5,7 C 4,4 C 95 % 2 lf 994,8 hPa 0,2 l/m 0,00 h 0,33 h 0 W/m 9,9 km/h (2 Bft) 96,79 %
06.01.2016 00:00 5,9 C 5,6 C 4,4 C 95 % 7 lf 994,9 hPa 0,6 l/m 0,00 h 0,70 h 0 W/m 11,7 km/h (2 Bft) 96,22 %
06.01.2016 01:00 5,6 C 5,6 C 4,2 C 96 % 7 lf 995,0 hPa 0,0 l/m 0,00 h 0,00 h 5 W/m 9,0 km/h (2 Bft) 95,08 %
06.01.2016 02:00 5,4 C 5,0 C 3,9 C 96 % 6 lf 995,3 hPa 0,0 l/m 0,00 h 0,20 h 5 W/m 7,4 km/h (2 Bft) 94,76 %
06.01.2016 03:00 5,3 C 5,0 C 3,9 C 96 % 7 lf 995,5 hPa 0,0 l/m 0,00 h 0,03 h 5 W/m 7,6 km/h (2 Bft) 96,08 %
06.01.2016 04:00 5,2 C 5,2 C 3,9 C 97 % 5 lf 995,7 hPa 0,0 l/m 0,00 h 0,00 h 0 W/m 8,3 km/h (2 Bft) 97,58 %
06.01.2016 05:00 5,3 C 5,5 C 3,9 C 97 % 1 lf 995,6 hPa 0,0 l/m 0,00 h 0,13 h 0 W/m 8,7 km/h (2 Bft) 94,39 %
06.01.2016 06:00 5,2 C 4,8 C 3,6 C 97 % 3 lf 996,0 hPa 0,0 l/m 0,00 h 0,30 h 0 W/m 7,8 km/h (2 Bft) 96,22 %
06.01.2016 07:00 5,1 C 5,0 C 3,9 C 97 % 3 lf 996,2 hPa 0,0 l/m 0,00 h 0,00 h 0 W/m 10,4 km/h (2 Bft) 96,22 %
06.01.2016 08:00 5,2 C 5,0 C 3,9 C 97 % 2 lf 996,7 hPa 0,0 l/m 0,00 h 0,03 h 10 W/m 7,1 km/h (2 Bft) 95,24 %
06.01.2016 09:00 5,2 C 5,5 C 4,0 C 97 % 1 lf 997,1 hPa 0,0 l/m 0,00 h 0,00 h 39 W/m 5,7 km/h (1 Bft) 97,94 %
06.01.2016 10:00 5,5 C 6,5 C 4,8 C 98 % 0 lf 997,7 hPa 0,0 l/m 0,27 h 0,00 h 74 W/m 7,8 km/h (2 Bft) 93,78 %
06.01.2016 11:00 6,1 C 6,5 C 5,2 C 98 % 0 lf 997,9 hPa 0,0 l/m 0,00 h 0,00 h 55 W/m 11,1 km/h (2 Bft) 95,68 %
06.01.2016 12:00 6,4 C 6,8 C 5,6 C 98 % 0 lf 997,9 hPa 0,0 l/m 0,00 h 0,00 h 60 W/m 10,9 km/h (2 Bft) 97,71 %
06.01.2016 13:00 6,9 C 7,5 C 5,9 C 97 % 0 lf 997,9 hPa 0,0 l/m 0,00 h 0,00 h 83 W/m 9,2 km/h (2 Bft) 96,76 %
06.01.2016 14:00 7,3 C 7,3 C 5,9 C 96 % 0 lf 998,1 hPa 0,0 l/m 0,00 h 0,13 h 49 W/m 7,8 km/h (2 Bft) 93,45 %
06.01.2016 15:00 7,3 C 7,7 C 5,7 C 95 % 0 lf 998,3 hPa 0,0 l/m 0,00 h 0,00 h 26 W/m 9,8 km/h (2 Bft) 97,70 %
06.01.2016 16:00 7,2 C 7,2 C 5,6 C 95 % 0 lf 998,5 hPa 0,0 l/m 0,00 h 0,00 h 8 W/m 8,1 km/h (2 Bft) 94,85 %
06.01.2016 17:00 7,0 C 6,9 C 5,5 C 95 % 4 lf 998,9 hPa 0,2 l/m 0,00 h 0,10 h 0 W/m 9,8 km/h (2 Bft) 97,00 %
06.01.2016 18:00 6,7 C 6,7 C 5,0 C 96 % 13 lf 999,0 hPa 0,0 l/m 0,00 h 0,13 h 0 W/m 6,8 km/h (2 Bft) 95,93 %
06.01.2016 19:00 6,5 C 6,1 C 5,0 C 97 % 14 lf 999,2 hPa 0,0 l/m 0,00 h 0,03 h 0 W/m 6,0 km/h (2 Bft) 94,67 %
06.01.2016 20:00 6,3 C 6,1 C 5,0 C 97 % 13 lf 999,3 hPa 0,0 l/m 0,00 h 0,08 h 0 W/m 6,6 km/h (2 Bft) 97,08 %
06.01.2016 21:00 6,2 C 6,0 C 4,7 C 97 % 12 lf 999,0 hPa 0,2 l/m 0,00 h 0,23 h 0 W/m 8,4 km/h (2 Bft) 96,39 %
06.01.2016 22:00 5,6 C 5,1 C 3,7 C 97 % 15 lf 998,7 hPa 0,0 l/m 0,00 h 0,00 h 0 W/m 10,4 km/h (2 Bft) 96,20 %
06.01.2016 23:00 4,9 C 4,5 C 3,1 C 97 % 15 lf 998,7 hPa 0,0 l/m 0,00 h 0,00 h 0 W/m 8,7 km/h (2 Bft) 94,66 %
07.01.2016 00:00 4,8 C 4,9 C 3,8 C 98 % 15 lf 998,9 hPa 0,0 l/m 0,00 h 0,00 h 0 W/m 8,7 km/h (2 Bft) 96,64 %
07.01.2016 01:00 5,1 C 5,0 C 3,9 C 98 % 15 lf 998,6 hPa 0,0 l/m 0,00 h 0,00 h 0 W/m 10,0 km/h (2 Bft) 97,04 %
07.01.2016 02:00 5,1 C 5,0 C 3,9 C 98 % 15 lf 998,5 hPa 0,0 l/m 0,00 h 0,00 h 0 W/m 10,2 km/h (2 Bft) 96,29 %
07.01.2016 03:00 4,8 C 5,0 C 3,4 C 98 % 15 lf 998,1 hPa 0,0 l/m 0,00 h 0,00 h 0 W/m 12,4 km/h (3 Bft) 94,30 %
07.01.2016 04:00 4,8 C 5,0 C 3,4 C 98 % 8 lf 997,0 hPa 0,0 l/m 0,00 h 0,00 h 0 W/m 18,0 km/h (3 Bft) 97,49 %
07.01.2016 05:00 4,8 C 5,0 C 3,3 C 98 % 1 lf 996,8 hPa 0,0 l/m 0,00 h 0,00 h 0 W/m 16,3 km/h (3 Bft) 95,24 %
07.01.2016 06:00 4,9 C 5,0 C 3,3 C 97 % 0 lf 996,1 hPa 0,0 l/m 0,00 h 0,00 h 0 W/m 14,4 km/h (3 Bft) 97,62 %
07.01.2016 07:00 5,0 C 5,3 C 3,5 C 97 % 0 lf 995,0 hPa 0,0 l/m 0,00 h 0,00 h 5 W/m 18,7 km/h (3 Bft) 95,24 %
07.01.2016 08:00 4,9 C 5,0 C 3,3 C 95 % 0 lf 994,6 hPa 0,0 l/m 0,12 h 0,00 h 10 W/m 19,8 km/h (3 Bft) 94,48 %
07.01.2016 09:00 5,1 C 5,8 C 3,7 C 95 % 0 lf 993,3 hPa 0,0 l/m 0,10 h 0,00 h 41 W/m 26,1 km/h (4 Bft) 98,28 %
07.01.2016 10:00 5,5 C 6,1 C 4,4 C 93 % 0 lf 992,3 hPa 0,0 l/m 0,00 h 0,00 h 65 W/m 29,6 km/h (5 Bft) 95,31 %
07.01.2016 11:00 5,9 C 6,5 C 5,0 C 92 % 0 lf 991,9 hPa 0,0 l/m 0,00 h 0,00 h 47 W/m 29,7 km/h (5 Bft) 94,80 %
07.01.2016 12:00 6,4 C 6,9 C 5,5 C 91 % 0 lf 990,6 hPa 0,0 l/m 0,00 h 0,00 h 57 W/m 28,0 km/h (4 Bft) 96,08 %
07.01.2016 13:00 6,6 C 6,0 C 4,8 C 90 % 1 lf 989,1 hPa 0,4 l/m 0,00 h 0,93 h 36 W/m 31,7 km/h (5 Bft) 96,65 %
07.01.2016 14:00 5,9 C 5,4 C 4,2 C 93 % 5 lf 988,6 hPa 2,0 l/m 0,00 h 1,00 h 26 W/m 30,5 km/h (5 Bft) 96,02 %
07.01.2016 15:00 5,4 C 5,0 C 3,8 C 95 % 14 lf 988,7 hPa 1,6 l/m 0,00 h 1,00 h 23 W/m 36,9 km/h (5 Bft) 97,22 %
07.01.2016 16:00 4,9 C 4,4 C 3,3 C 95 % 15 lf 988,6 hPa 0,4 l/m 0,00 h 0,83 h 13 W/m 34,9 km/h (5 Bft) 94,68 %
07.01.2016 17:00 4,8 C 4,6 C 3,3 C 96 % 15 lf 988,3 hPa 0,4 l/m 0,00 h 0,80 h 0 W/m 30,5 km/h (5 Bft) 96,01 %
07.01.2016 18:00 5,5 C 5,7 C 4,4 C 97 % 15 lf 988,1 hPa 1,6 l/m 0,00 h 0,73 h 0 W/m 22,3 km/h (4 Bft) 96,51 %
07.01.2016 19:00 7,1 C 6,8 C 5,6 C 97 % 15 lf 989,6 hPa 0,4 l/m 0,00 h 0,87 h 0 W/m 48,0 km/h (6 Bft) 96,08 %
07.01.2016 20:00 6,5 C 6,0 C 4,6 C 95 % 15 lf 991,8 hPa 0,0 l/m 0,00 h 0,00 h 0 W/m 40,9 km/h (6 Bft) 95,23 %
07.01.2016 21:00 6,1 C 5,6 C 3,7 C 90 % 10 lf 993,6 hPa 0,0 l/m 0,00 h 0,00 h 0 W/m 39,7 km/h (6 Bft) 95,66 %
07.01.2016 22:00 5,9 C 5,9 C 3,3 C 85 % 0 lf 995,0 hPa 0,0 l/m 0,00 h 0,00 h 0 W/m 38,2 km/h (5 Bft) 98,50 %
07.01.2016 23:00 5,5 C 5,5 C 3,0 C 84 % 0 lf 995,6 hPa 0,0 l/m 0,00 h 0,00 h 0 W/m 35,9 km/h (5 Bft) 95,87 %
08.01.2016 00:00 5,2 C 5,2 C 3,6 C 83 % 0 lf 997,0 hPa 0,0 l/m 0,00 h 0,00 h 0 W/m 32,8 km/h (5 Bft) 94,93 %
08.01.2016 01:00 5,1 C 5,0 C 3,4 C 84 % 0 lf 997,9 hPa 0,0 l/m 0,00 h 0,00 h 0 W/m 36,0 km/h (5 Bft) 96,80 %
08.01.2016 02:00 5,0 C 5,0 C 3,3 C 84 % 0 lf 998,8 hPa 0,0 l/m 0,00 h 0,00 h 0 W/m 35,6 km/h (5 Bft) 93,73 %
08.01.2016 03:00 4,8 C 4,8 C 3,3 C 84 % 0 lf 999,8 hPa 0,0 l/m 0,00 h 0,00 h 0 W/m 35,2 km/h (5 Bft) 97,72 %
08.01.2016 04:00 4,3 C 4,1 C 2,8 C 86 % 0 lf 1000,6 hPa 0,0 l/m 0,00 h 0,00 h 0 W/m 27,5 km/h (4 Bft) 96,58 %
08.01.2016 05:00 3,9 C 3,9 C 2,4 C 86 % 0 lf 1000,9 hPa 0,0 l/m 0,00 h 0,00 h 0 W/m 28,6 km/h (4 Bft) 92,81 %
08.01.2016 06:00 3,8 C 3,9 C 2,2 C 85 % 0 lf 1001,3 hPa 0,0 l/m 0,00 h 0,00 h 0 W/m 28,9 km/h (5 Bft) 96,37 %
08.01.2016 07:00 3,7 C 3,7 C 2,2 C 87 % 0 lf 1001,9 hPa 0,0 l/m 0,00 h 0,00 h 0 W/m 28,0 km/h (4 Bft) 97,86 %
08.01.2016 08:00 3,4 C 3,4 C 2,1 C 89 % 0 lf 1002,3 hPa 0,0 l/m 0,00 h 0,00 h 9 W/m 24,0 km/h (4 Bft) 93,80 %
08.01.2016 09:00 3,6 C 4,2 C 2,5 C 90 % 0 lf 1003,0 hPa 0,0 l/m 0,57 h 0,00 h 49 W/m 22,2 km/h (4 Bft) 96,44 %
08.01.2016 10:00 4,5 C 6,1 C 3,6 C 88 % 0 lf 1003,7 hPa 0,0 l/m 1,00 h 0,00 h 136 W/m 19,3 km/h (3 Bft) 95,15 %
08.01.2016 11:00 6,0 C 11,9 C 4,6 C 85 % 0 lf 1004,0 hPa 0,0 l/m 1,00 h 0,00 h 213 W/m 22,2 km/h (4 Bft) 96,77 %
08.01.2016 12:00 7,2 C 12,3 C 5,6 C 81 % 0 lf 1003,8 hPa 0,0 l/m 1,00 h 0,00 h 243 W/m 23,3 km/h (4 Bft) 97,52 %
08.01.2016 13:00 8,0 C 13,5 C 6,4 C 78 % 0 lf 1003,0 hPa 0,0 l/m 1,00 h 0,00 h 218 W/m 20,1 km/h (4 Bft) 95,44 %
08.01.2016 14:00 8,5 C 12,7 C 6,7 C 74 % 0 lf 1002,7 hPa 0,0 l/m 1,00 h 0,00 h 150 W/m 18,2 km/h (3 Bft) 97,22 %
08.01.2016 15:00 8,0 C 8,3 C 5,8 C 73 % 0 lf 1002,8 hPa 0,0 l/m 0,30 h 0,00 h 60 W/m 15,4 km/h (3 Bft) 96,44 %
08.01.2016 16:00 7,0 C 6,3 C 4,1 C 75 % 0 lf 1002,8 hPa 0,0 l/m 0,00 h 0,00 h 13 W/m 9,5 km/h (2 Bft) 96,23 %
08.01.2016 17:00 5,8 C 4,5 C 1,9 C 78 % 0 lf 1002,9 hPa 0,0 l/m 0,00 h 0,00 h 4 W/m 6,8 km/h (2 Bft) 96,31 %
08.01.2016 18:00 4,2 C 3,4 C 0,8 C 83 % 0 lf 1002,9 hPa 0,0 l/m 0,00 h 0,00 h 0 W/m 6,9 km/h (2 Bft) 93,70 %
08.01.2016 19:00 3,4 C 3,3 C 1,5 C 86 % 0 lf 1003,2 hPa 0,0 l/m 0,00 h 0,00 h 0 W/m 9,7 km/h (2 Bft) 97,36 %
08.01.2016 20:00 2,9 C 2,5 C 1,0 C 87 % 0 lf 1003,2 hPa 0,0 l/m 0,00 h 0,00 h 0 W/m 8,5 km/h (2 Bft) 98,15 %
08.01.2016 21:00 2,1 C 1,9 C 0,3 C 89 % 0 lf 1002,8 hPa 0,0 l/m 0,00 h 0,00 h 0 W/m 9,9 km/h (2 Bft) 93,81 %
08.01.2016 22:00 1,6 C 1,4 C 0,2 C 91 % 0 lf 1002,8 hPa 0,0 l/m 0,00 h 0,00 h 0 W/m 10,8 km/h (2 Bft) 95,80 %
08.01.2016 23:00 1,3 C 1,4 C 0,1 C 92 % 0 lf 1002,5 hPa 0,0 l/m 0,00 h 0,00 h 0 W/m 11,9 km/h (2 Bft) 96,65 %
09.01.2016 00:00 1,4 C 1,6 C 0,3 C 93 % 0 lf 1002,5 hPa 0,0 l/m 0,00 h 0,00 h 0 W/m 10,7 km/h (2 Bft) 96,44 %
09.01.2016 01:00 1,4 C 1,8 C 0,6 C 94 % 0 lf 1002,4 hPa 0,0 l/m 0,00 h 0,00 h 0 W/m 10,4 km/h (2 Bft) 96,08 %
09.01.2016 02:00 1,8 C 2,2 C 1,0 C 94 % 0 lf 1002,3 hPa 0,0 l/m 0,00 h 0,00 h 0 W/m 14,2 km/h (3 Bft) 95,51 %
09.01.2016 03:00 2,1 C 2,6 C 1,3 C 94 % 0 lf 1002,4 hPa 0,0 l/m 0,00 h 0,00 h 0 W/m 9,7 km/h (2 Bft) 96,44 %
09.01.2016 04:00 2,2 C 2,3 C 0,9 C 94 % 0 lf 1002,1 hPa 0,0 l/m 0,00 h 0,00 h 0 W/m 6,2 km/h (2 Bft) 96,73 %
09.01.2016 05:00 1,8 C 1,9 C 0,6 C 94 % 1 lf 1001,8 hPa 0,0 l/m 0,00 h 0,00 h 0 W/m 9,0 km/h (2 Bft) 97,65 %
09.01.2016 06:00 1,7 C 1,9 C 0,6 C 94 % 1 lf 1001,7 hPa 0,0 l/m 0,00 h 0,00 h 0 W/m 7,8 km/h (2 Bft) 95,52 %
09.01.2016 07:00 2,0 C 2,2 C 1,0 C 95 % 0 lf 1001,5 hPa 0,0 l/m 0,00 h 0,00 h 0 W/m 9,2 km/h (2 Bft) 94,54 %
09.01.2016 08:00 1,8 C 1,7 C 0,4 C 95 % 1 lf 1001,4 hPa 0,0 l/m 0,00 h 0,00 h 7 W/m 9,7 km/h (2 Bft) 98,43 %
09.01.2016 09:00 1,5 C 2,1 C 0,6 C 95 % 1 lf 1001,4 hPa 0,0 l/m 0,63 h 0,00 h 52 W/m 11,9 km/h (2 Bft) 95,59 %
09.01.2016 10:00 2,8 C 4,7 C 2,7 C 96 % 0 lf 1001,2 hPa 0,0 l/m 0,97 h 0,00 h 182 W/m 20,3 km/h (4 Bft) 95,01 %
09.01.2016 11:00 4,8 C 8,2 C 4,2 C 93 % 0 lf 1000,8 hPa 0,0 l/m 0,87 h 0,00 h 220 W/m 22,5 km/h (4 Bft) 97,51 %
09.01.2016 12:00 5,4 C 7,5 C 4,8 C 89 % 0 lf 1000,4 hPa 0,0 l/m 0,47 h 0,00 h 159 W/m 15,0 km/h (3 Bft) 95,59 %
09.01.2016 13:00 6,3 C 7,7 C 5,6 C 88 % 0 lf 999,7 hPa 0,0 l/m 0,33 h 0,00 h 139 W/m 16,6 km/h (3 Bft) 93,24 %
09.01.2016 14:00 6,7 C 8,5 C 6,0 C 87 % 0 lf 999,1 hPa 0,0 l/m 0,87 h 0,00 h 135 W/m 19,0 km/h (3 Bft) 98,58 %
09.01.2016 15:00 7,3 C 8,0 C 6,0 C 87 % 0 lf 998,8 hPa 0,0 l/m 0,70 h 0,00 h 78 W/m 21,0 km/h (4 Bft) 96,08 %
09.01.2016 16:00 6,8 C 6,8 C 5,3 C 87 % 0 lf 998,8 hPa 0,0 l/m 0,00 h 0,00 h 16 W/m 23,8 km/h (4 Bft) 94,94 %
09.01.2016 17:00 6,0 C 6,1 C 4,6 C 88 % 0 lf 998,5 hPa 0,0 l/m 0,00 h 0,00 h 0 W/m 23,6 km/h (4 Bft) 95,87 %
09.01.2016 18:00 5,5 C 5,6 C 4,2 C 90 % 0 lf 998,3 hPa 0,0 l/m 0,00 h 0,00 h 0 W/m 17,0 km/h (3 Bft) 96,56 %
09.01.2016 19:00 5,0 C 4,9 C 3,4 C 91 % 0 lf 998,0 hPa 0,0 l/m 0,00 h 0,00 h 0 W/m 15,1 km/h (3 Bft) 96,58 %
09.01.2016 20:00 4,5 C 4,4 C 3,0 C 92 % 0 lf 997,3 hPa 0,0 l/m 0,00 h 0,00 h 0 W/m 17,7 km/h (3 Bft) 96,87 %
09.01.2016 21:00 4,1 C 4,4 C 2,8 C 94 % 0 lf 996,6 hPa 0,0 l/m 0,00 h 0,00 h 0 W/m 17,3 km/h (3 Bft) 92,24 %
09.01.2016 22:00 4,2 C 4,4 C 2,8 C 95 % 0 lf 996,0 hPa 0,0 l/m 0,00 h 0,00 h 0 W/m 20,8 km/h (4 Bft) 97,95 %
09.01.2016 23:00 4,4 C 4,7 C 3,1 C 95 % 0 lf 995,1 hPa 0,0 l/m 0,00 h 0,00 h 0 W/m 21,9 km/h (4 Bft) 97,08 %
10.01.2016 00:00 4,9 C 5,2 C 3,9 C 95 % 0 lf 994,2 hPa 0,0 l/m 0,00 h 0,00 h 0 W/m 26,7 km/h (4 Bft) 94,63 %
10.01.2016 01:00 5,1 C 5,4 C 3,8 C 94 % 0 lf 993,1 hPa 0,0 l/m 0,00 h 0,00 h 0 W/m 25,3 km/h (4 Bft) 95,74 %
10.01.2016 02:00 5,5 C 5,6 C 4,1 C 94 % 0 lf 992,2 hPa 0,2 l/m 0,00 h 0,47 h 0 W/m 26,2 km/h (4 Bft) 96,73 %
10.01.2016 03:00 5,7 C 5,7 C 4,3 C 94 % 0 lf 991,4 hPa 0,0 l/m 0,00 h 0,73 h 0 W/m 27,4 km/h (4 Bft) 95,73 %
10.01.2016 04:00 5,9 C 6,0 C 4,5 C 94 % 0 lf 990,6 hPa 0,0 l/m 0,00 h 0,15 h 0 W/m 19,6 km/h (3 Bft) 97,22 %
10.01.2016 05:00 6,1 C 6,1 C 4,9 C 95 % 2 lf 990,5 hPa 0,2 l/m 0,00 h 0,20 h 0 W/m 11,2 km/h (2 Bft) 94,10 %
10.01.2016 06:00 6,6 C 6,5 C 4,9 C 96 % 15 lf 990,2 hPa 0,6 l/m 0,00 h 0,70 h 0 W/m 14,1 km/h (3 Bft) 95,72 %
10.01.2016 07:00 6,7 C 6,3 C 4,9 C 95 % 13 lf 990,8 hPa 0,0 l/m 0,00 h 0,00 h 0 W/m 19,0 km/h (3 Bft) 98,79 %
10.01.2016 08:00 6,9 C 6,8 C 4,7 C 92 % 0 lf 991,3 hPa 0,0 l/m 0,00 h 0,00 h 9 W/m 18,5 km/h (3 Bft) 95,44 %
10.01.2016 09:00 6,5 C 6,6 C 3,9 C 89 % 0 lf 992,0 hPa 0,0 l/m 0,40 h 0,00 h 45 W/m 17,8 km/h (3 Bft) 94,45 %
10.01.2016 10:00 6,5 C 7,9 C 4,3 C 88 % 0 lf 992,5 hPa 0,0 l/m 1,00 h 0,00 h 145 W/m 22,2 km/h (4 Bft) 94,94 %
10.01.2016 11:00 7,9 C 13,9 C 5,1 C 83 % 0 lf 992,5 hPa 0,0 l/m 1,00 h 0,00 h 224 W/m 20,2 km/h (4 Bft) 97,15 %
10.01.2016 12:00 9,1 C 14,0 C 6,5 C 75 % 0 lf 992,6 hPa 0,0 l/m 1,00 h 0,00 h 253 W/m 24,1 km/h (4 Bft) 95,58 %
10.01.2016 13:00 9,6 C 14,1 C 7,7 C 70 % 0 lf 992,2 hPa 0,0 l/m 1,00 h 0,00 h 236 W/m 25,8 km/h (4 Bft) 97,29 %
10.01.2016 14:00 9,5 C 12,2 C 7,4 C 69 % 0 lf 991,8 hPa 0,0 l/m 0,53 h 0,00 h 114 W/m 26,5 km/h (4 Bft) 96,23 %
10.01.2016 15:00 8,1 C 8,2 C 6,5 C 74 % 0 lf 991,6 hPa 0,0 l/m 0,00 h 0,00 h 35 W/m 19,0 km/h (3 Bft) 96,79 %
10.01.2016 16:00 7,5 C 7,0 C 5,2 C 79 % 0 lf 991,3 hPa 0,0 l/m 0,00 h 0,63 h 7 W/m 14,8 km/h (3 Bft) 95,94 %
10.01.2016 17:00 7,0 C 5,6 C 4,4 C 86 % 14 lf 991,2 hPa 0,6 l/m 0,00 h 0,70 h 0 W/m 12,7 km/h (3 Bft) 96,44 %
10.01.2016 18:00 6,4 C 5,6 C 4,4 C 90 % 13 lf 991,1 hPa 0,2 l/m 0,00 h 0,30 h 0 W/m 7,3 km/h (2 Bft) 95,02 %
10.01.2016 19:00 6,1 C 5,6 C 4,4 C 92 % 15 lf 991,3 hPa 0,2 l/m 0,00 h 0,30 h 0 W/m 9,9 km/h (2 Bft) 96,15 %
10.01.2016 20:00 6,0 C 5,6 C 4,2 C 94 % 15 lf 991,6 hPa 0,0 l/m 0,00 h 0,07 h 0 W/m 11,5 km/h (2 Bft) 96,23 %
10.01.2016 21:00 5,8 C 5,6 C 4,2 C 94 % 12 lf 991,8 hPa 0,0 l/m 0,00 h 0,00 h 0 W/m 14,1 km/h (3 Bft) 97,08 %
10.01.2016 22:00 5,7 C 5,1 C 3,5 C 93 % 0 lf 991,9 hPa 0,0 l/m 0,00 h 0,00 h 0 W/m 13,4 km/h (3 Bft) 96,44 %
10.01.2016 23:00 5,2 C 4,7 C 3,0 C 93 % 0 lf 992,3 hPa 0,0 l/m 0,00 h 0,00 h 0 W/m 13,6 km/h (3 Bft) 93,31 %
Min-Datum _ 08.01.16 08.01.16 08.01.16 10.01.16 04.01.16 04.01.16 - - - - 04.01.16 05.01.16
_ Min-Zeit 23:30 22:24 21:00 14:10 13:14 06:10 - - - - 23:34 00:04
Minimum _ 1,2 C 1,1 C 0,0 C 68 % 0 lf 987,4 hPa - - - - 0,0 km/h (0 Bft) 9,09 %
Max-Datum _ 10.01.16 10.01.16 05.01.16 04.01.16 04.01.16 08.01.16 07.01.16 04.01.16 04.01.16 05.01.16 07.01.16 04.01.16
_ Max-Zeit 14:08 12:32 11:28 11:32 00:00 10:44 14:00 12:46 00:00 11:34 19:16 00:08
Maximum _ 9,9 C 16,1 C 7,8 C 99 % 15 lf 1004,0 hPa 2,0 l/m 0,03 h 0,03 h 301 W/m 64,9 km/h
W (8 Bft)
100,00 %
Durchschnitt _ 5,5 C 5,9 C 4,1 C 92 % 5 lf 995,0 hPa #18,0 l/m #17:45 h #22:53 h 72 W/m 16,2 km/h (3 Bft) 95,98 %
© 2016 W. Hausmann